createdAt,value
2023-03-12T00:00:11.479Z,2.67
2023-03-12T00:02:38.787Z,3.38
2023-03-12T00:05:06.590Z,3.55
2023-03-12T00:07:36.514Z,2.20
2023-03-12T00:10:05.052Z,2.53
2023-03-12T00:12:32.499Z,2.58
2023-03-12T00:14:59.809Z,2.28
2023-03-12T00:17:28.588Z,2.60
2023-03-12T00:19:55.748Z,2.03
2023-03-12T00:22:23.353Z,2.03
2023-03-12T00:24:54.429Z,2.40
2023-03-12T00:27:22.297Z,2.72
2023-03-12T00:29:50.303Z,2.15
2023-03-12T00:32:17.650Z,2.60
2023-03-12T00:34:50.653Z,2.47
2023-03-12T00:37:18.017Z,2.30
2023-03-12T00:39:45.361Z,2.30
2023-03-12T00:42:12.605Z,2.42
2023-03-12T00:44:40.142Z,2.50
2023-03-12T00:47:07.602Z,2.70
2023-03-12T00:49:37.348Z,2.80
2023-03-12T00:52:05.237Z,2.70
2023-03-12T00:54:32.458Z,2.05
2023-03-12T00:56:59.748Z,2.47
2023-03-12T00:59:27.044Z,2.85
2023-03-12T01:01:54.727Z,2.22
2023-03-12T01:04:22.040Z,2.58
2023-03-12T01:06:49.285Z,2.20
2023-03-12T01:09:16.712Z,2.03
2023-03-12T01:11:44.317Z,2.47
2023-03-12T01:14:11.614Z,2.45
2023-03-12T01:16:39.134Z,2.83
2023-03-12T01:19:06.574Z,2.92
2023-03-12T01:21:34.033Z,2.92
2023-03-12T01:24:01.275Z,2.55
2023-03-12T01:26:28.625Z,3.30
2023-03-12T01:28:55.847Z,2.70
2023-03-12T01:31:23.234Z,3.03
2023-03-12T01:33:54.033Z,2.92
2023-03-12T01:36:29.925Z,3.13
2023-03-12T01:38:59.806Z,3.13
2023-03-12T01:41:29.111Z,2.88
2023-03-12T01:43:56.594Z,2.53
2023-03-12T01:46:30.509Z,2.97
2023-03-12T01:49:10.205Z,2.75
2023-03-12T01:51:40.824Z,2.67
2023-03-12T01:54:19.968Z,2.45
2023-03-12T01:56:49.584Z,3.35
2023-03-12T01:59:23.537Z,2.80
2023-03-12T02:01:52.019Z,2.50
2023-03-12T02:04:22.409Z,3.33
2023-03-12T02:07:01.124Z,3.03
2023-03-12T02:09:28.653Z,3.00
2023-03-12T02:11:55.984Z,2.80
2023-03-12T02:14:23.467Z,2.97
2023-03-12T02:16:52.172Z,3.33
2023-03-12T02:19:29.642Z,2.65
2023-03-12T02:21:58.182Z,2.92
2023-03-12T02:24:32.856Z,2.83
2023-03-12T02:27:01.822Z,2.92
2023-03-12T02:29:32.136Z,3.08
2023-03-12T02:32:01.964Z,2.45
2023-03-12T02:34:29.447Z,2.50
2023-03-12T02:36:56.803Z,2.45
2023-03-12T02:39:24.185Z,3.05
2023-03-12T02:41:54.226Z,2.38
2023-03-12T02:44:27.935Z,2.58
2023-03-12T02:46:57.777Z,2.45
2023-03-12T02:49:28.097Z,2.17
2023-03-12T02:51:55.505Z,2.45
2023-03-12T02:54:24.139Z,2.70
2023-03-12T02:56:52.212Z,2.35
2023-03-12T02:59:21.949Z,2.95
2023-03-12T03:01:54.755Z,2.30
2023-03-12T03:04:22.789Z,2.33
2023-03-12T03:06:50.856Z,2.85
2023-03-12T03:09:18.443Z,2.30
2023-03-12T03:11:45.797Z,2.60
2023-03-12T03:14:13.554Z,2.10
2023-03-12T03:16:41.123Z,2.78
2023-03-12T03:19:08.858Z,2.88
2023-03-12T03:21:36.178Z,2.53
2023-03-12T03:24:03.994Z,2.78
2023-03-12T03:26:31.470Z,2.85
2023-03-12T03:28:58.865Z,2.97
2023-03-12T03:31:26.300Z,2.55
2023-03-12T03:33:53.764Z,2.47
2023-03-12T03:36:23.307Z,2.63
2023-03-12T03:39:13.387Z,3.10
2023-03-12T03:41:40.839Z,3.60
2023-03-12T03:44:08.716Z,2.97
2023-03-12T03:46:38.413Z,2.95
2023-03-12T03:49:09.309Z,2.65
2023-03-12T03:51:39.012Z,2.70
2023-03-12T03:54:10.922Z,2.88
2023-03-12T03:56:41.121Z,3.13
2023-03-12T03:59:10.189Z,2.70
2023-03-12T04:01:39.614Z,2.70
2023-03-12T04:04:07.062Z,3.03
2023-03-12T04:06:35.509Z,3.10
2023-03-12T04:09:03.029Z,3.50
2023-03-12T04:11:32.118Z,3.08
2023-03-12T04:14:00.632Z,2.70
2023-03-12T04:16:31.436Z,2.95
2023-03-12T04:18:59.728Z,3.05
2023-03-12T04:21:27.860Z,3.33
2023-03-12T04:23:55.244Z,3.03
2023-03-12T04:26:26.300Z,3.08
2023-03-12T04:28:54.685Z,3.30
2023-03-12T04:31:22.235Z,2.80
2023-03-12T04:33:51.145Z,2.63
2023-03-12T04:36:20.855Z,3.10
2023-03-12T04:38:50.165Z,3.28
2023-03-12T04:41:21.048Z,3.50
2023-03-12T04:44:12.928Z,2.85
2023-03-12T04:46:43.268Z,3.20
2023-03-12T04:49:14.207Z,3.33
2023-03-12T04:51:43.202Z,3.40
2023-03-12T04:54:10.575Z,3.05
2023-03-12T04:56:40.086Z,3.67
2023-03-12T04:59:07.599Z,3.25
2023-03-12T05:01:37.174Z,3.28
2023-03-12T05:04:10.512Z,3.53
2023-03-12T05:06:38.145Z,3.65
2023-03-12T05:09:05.455Z,3.92
2023-03-12T05:11:33.528Z,3.30
2023-03-12T05:14:01.360Z,3.83
2023-03-12T05:16:30.006Z,3.53
2023-03-12T05:18:57.921Z,3.83
2023-03-12T05:21:26.219Z,3.72
2023-03-12T05:23:55.891Z,4.28
2023-03-12T05:26:29.338Z,4.05
2023-03-12T05:29:05.200Z,4.20
2023-03-12T05:31:35.505Z,4.63
2023-03-12T05:34:06.035Z,4.22
2023-03-12T05:36:37.468Z,4.40
2023-03-12T05:39:06.130Z,4.95
2023-03-12T05:41:35.123Z,5.13
2023-03-12T05:44:16.169Z,4.38
2023-03-12T05:46:47.348Z,4.32
2023-03-12T05:49:14.809Z,4.30
2023-03-12T05:51:43.558Z,4.85
2023-03-12T05:54:11.484Z,4.97
2023-03-12T05:56:38.929Z,5.03
2023-03-12T05:59:07.903Z,6.00
2023-03-12T06:01:35.405Z,5.07
2023-03-12T06:04:04.591Z,4.68
2023-03-12T06:06:33.987Z,4.85
2023-03-12T06:09:02.046Z,4.15
2023-03-12T06:11:30.108Z,4.28
2023-03-12T06:13:57.725Z,5.30
2023-03-12T06:16:27.491Z,3.80
2023-03-12T06:18:57.495Z,4.00
2023-03-12T06:21:27.390Z,4.15
2023-03-12T06:23:55.057Z,3.92
2023-03-12T06:26:28.333Z,4.32
2023-03-12T06:28:55.961Z,3.50
2023-03-12T06:31:23.919Z,3.42
2023-03-12T06:33:51.743Z,4.10
2023-03-12T06:36:19.006Z,3.40
2023-03-12T06:38:46.279Z,3.60
2023-03-12T06:41:18.467Z,4.25
2023-03-12T06:43:46.559Z,3.38
2023-03-12T06:46:16.977Z,4.03
2023-03-12T06:48:46.256Z,3.80
2023-03-12T06:51:15.908Z,3.47
2023-03-12T06:53:43.746Z,3.25
2023-03-12T06:56:11.762Z,3.78
2023-03-12T06:58:40.273Z,4.20
2023-03-12T07:01:07.750Z,4.30
2023-03-12T07:03:35.674Z,3.70
2023-03-12T07:06:03.122Z,3.65
2023-03-12T07:08:31.189Z,3.70
2023-03-12T07:11:01.792Z,3.72
2023-03-12T07:13:30.840Z,3.72
2023-03-12T07:15:58.439Z,4.30
2023-03-12T07:18:25.828Z,4.28
2023-03-12T07:20:53.377Z,3.70
2023-03-12T07:23:21.271Z,3.63
2023-03-12T07:25:48.955Z,4.35
2023-03-12T07:28:17.030Z,3.75
2023-03-12T07:30:50.404Z,4.38
2023-03-12T07:33:21.983Z,4.03
2023-03-12T07:35:51.698Z,4.20
2023-03-12T07:38:19.857Z,4.00
2023-03-12T07:40:57.731Z,3.72
2023-03-12T07:43:25.945Z,4.22
2023-03-12T07:45:55.444Z,3.78
2023-03-12T07:48:22.936Z,4.18
2023-03-12T07:50:50.856Z,4.18
2023-03-12T07:53:18.610Z,4.35
2023-03-12T07:55:48.006Z,4.88
2023-03-12T07:58:17.301Z,4.43
2023-03-12T08:00:45.724Z,4.28
2023-03-12T08:03:13.752Z,4.63
2023-03-12T08:05:41.620Z,4.70
2023-03-12T08:08:09.552Z,4.60
2023-03-12T08:10:37.470Z,4.72
2023-03-12T08:13:05.054Z,4.80
2023-03-12T08:15:33.532Z,4.57
2023-03-12T08:18:01.666Z,5.18
2023-03-12T08:20:29.012Z,4.78
2023-03-12T08:22:56.403Z,4.18
2023-03-12T08:25:24.809Z,4.97
2023-03-12T08:27:52.738Z,4.70
2023-03-12T08:30:20.296Z,4.15
2023-03-12T08:32:47.644Z,3.95
2023-03-12T08:35:15.076Z,3.25
2023-03-12T08:37:42.372Z,4.15
2023-03-12T08:40:15.989Z,3.90
2023-03-12T08:42:44.609Z,3.70
2023-03-12T08:45:13.249Z,3.95
2023-03-12T08:47:41.905Z,3.28
2023-03-12T08:50:12.042Z,3.55
2023-03-12T08:52:39.845Z,3.75
2023-03-12T08:55:07.505Z,3.38
2023-03-12T08:57:34.869Z,3.60
2023-03-12T09:00:05.422Z,3.75
2023-03-12T09:02:32.823Z,3.55
2023-03-12T09:05:00.226Z,3.75
2023-03-12T09:07:27.446Z,4.28
2023-03-12T09:09:57.988Z,3.53
2023-03-12T09:12:25.843Z,3.65
2023-03-12T09:15:08.503Z,4.30
2023-03-12T09:17:35.968Z,4.00
2023-03-12T09:20:07.244Z,3.97
2023-03-12T09:22:38.160Z,3.72
2023-03-12T09:25:07.637Z,3.95
2023-03-12T09:27:43.375Z,3.25
2023-03-12T09:30:13.942Z,3.63
2023-03-12T09:32:41.906Z,4.32
2023-03-12T09:35:09.616Z,3.65
2023-03-12T09:37:36.959Z,3.65
2023-03-12T09:40:07.879Z,3.72
2023-03-12T09:42:41.163Z,3.65
2023-03-12T09:45:21.774Z,3.63
2023-03-12T09:47:52.591Z,3.75
2023-03-12T09:50:33.676Z,3.40
2023-03-12T09:53:19.037Z,3.92
2023-03-12T09:55:50.317Z,4.00
2023-03-12T09:58:26.758Z,4.30
2023-03-12T10:01:12.518Z,5.10
2023-03-12T10:04:02.358Z,4.15
2023-03-12T10:06:38.039Z,3.65
2023-03-12T10:09:29.498Z,3.30
2023-03-12T10:12:10.568Z,3.80
2023-03-12T10:14:52.116Z,3.63
2023-03-12T10:17:31.542Z,3.55
2023-03-12T10:20:20.578Z,3.30
2023-03-12T10:23:14.265Z,4.25
2023-03-12T10:25:49.941Z,3.88
2023-03-12T10:28:35.940Z,5.13
2023-03-12T10:31:12.385Z,3.53
2023-03-12T10:33:54.397Z,3.55
2023-03-12T10:36:28.573Z,3.33
2023-03-12T10:38:56.046Z,3.05
2023-03-12T10:41:31.624Z,2.95
2023-03-12T10:44:08.211Z,3.20
2023-03-12T10:46:59.997Z,3.13
2023-03-12T10:49:30.859Z,3.40
2023-03-12T10:52:07.302Z,3.70
2023-03-12T10:54:40.678Z,3.40
2023-03-12T10:57:12.372Z,2.30
2023-03-12T10:59:43.227Z,3.70
2023-03-12T11:02:40.031Z,3.90
2023-03-12T11:05:49.851Z,3.92
2023-03-12T11:08:35.275Z,3.88
2023-03-12T11:11:04.039Z,3.88
2023-03-12T11:13:38.764Z,3.72
2023-03-12T11:16:18.121Z,3.80
2023-03-12T11:19:00.144Z,3.97
2023-03-12T11:21:29.420Z,3.47
2023-03-12T11:23:59.350Z,3.33
2023-03-12T11:26:51.190Z,3.78
2023-03-12T11:29:30.806Z,4.15
2023-03-12T11:32:06.177Z,3.83
2023-03-12T11:34:37.226Z,3.55
2023-03-12T11:37:32.914Z,3.33
2023-03-12T11:40:10.064Z,3.35
2023-03-12T11:42:45.916Z,3.50
2023-03-12T11:45:16.264Z,3.55
2023-03-12T11:48:01.053Z,3.80
2023-03-12T11:51:00.547Z,3.78
2023-03-12T11:53:30.438Z,4.38
2023-03-12T11:56:15.439Z,4.30
2023-03-12T11:59:14.232Z,3.95
2023-03-12T12:05:32.354Z,3.50
2023-03-12T12:08:33.514Z,3.72
2023-03-12T12:29:13.212Z,3.90
2023-03-12T12:31:58.281Z,3.97
2023-03-12T12:34:56.263Z,3.72
2023-03-12T12:37:50.617Z,3.67
2023-03-12T12:40:22.940Z,4.68
2023-03-12T12:43:05.814Z,4.05
2023-03-12T12:45:33.081Z,4.20
2023-03-12T12:48:09.137Z,4.55
2023-03-12T12:50:39.995Z,4.70
2023-03-12T12:53:13.841Z,11.13
2023-03-12T12:55:46.648Z,4.75
2023-03-12T12:58:30.622Z,3.97
2023-03-12T13:01:02.410Z,4.50
2023-03-12T13:03:30.856Z,3.80
2023-03-12T13:06:03.436Z,3.45
2023-03-12T13:08:43.094Z,3.83
2023-03-12T13:11:20.038Z,5.32
2023-03-12T13:14:12.235Z,4.10
2023-03-12T13:16:43.406Z,4.97
2023-03-12T13:19:28.392Z,15.48
2023-03-12T13:22:27.001Z,4.22
2023-03-12T13:25:21.633Z,3.58
2023-03-12T13:27:59.411Z,3.05
2023-03-12T13:30:35.690Z,2.65
2023-03-12T13:33:10.587Z,2.70
2023-03-12T13:35:39.735Z,3.28
2023-03-12T13:38:50.350Z,3.25
2023-03-12T13:41:32.734Z,2.67
2023-03-12T13:44:00.761Z,3.17
2023-03-12T13:46:40.512Z,3.10
2023-03-12T13:49:14.627Z,3.28
2023-03-12T13:51:53.737Z,3.00
2023-03-12T13:54:25.708Z,2.97
2023-03-12T13:57:12.154Z,3.20
2023-03-12T13:59:54.038Z,3.38
2023-03-12T14:02:28.209Z,3.28
2023-03-12T14:05:10.589Z,3.67
2023-03-12T14:07:38.150Z,3.45
2023-03-12T14:10:28.534Z,3.25
2023-03-12T14:13:34.423Z,2.97
2023-03-12T14:16:19.315Z,3.50
2023-03-12T14:18:48.087Z,3.03
2023-03-12T14:21:17.739Z,3.40
2023-03-12T14:23:56.926Z,2.50
2023-03-12T14:26:28.034Z,2.75
2023-03-12T14:29:15.710Z,2.90
2023-03-12T14:31:43.348Z,3.10
2023-03-12T14:34:21.537Z,3.13
2023-03-12T14:37:05.925Z,3.08
2023-03-12T14:39:45.209Z,3.00
2023-03-12T14:42:29.526Z,3.13
2023-03-12T14:45:01.750Z,2.85
2023-03-12T14:47:30.712Z,3.15
2023-03-12T14:49:58.436Z,3.08
2023-03-12T14:52:28.365Z,3.22
2023-03-12T14:55:01.585Z,3.05
2023-03-12T14:59:59.486Z,3.25
2023-03-12T15:02:30.110Z,3.83
2023-03-12T15:05:00.735Z,3.78
2023-03-12T15:07:32.665Z,3.60
2023-03-12T15:10:00.458Z,5.00
2023-03-12T15:12:35.711Z,3.03
2023-03-12T15:15:10.858Z,4.22
2023-03-12T15:17:38.499Z,3.25
2023-03-12T15:20:09.534Z,4.03
2023-03-12T15:22:37.769Z,3.72
2023-03-12T15:25:23.629Z,3.60
2023-03-12T15:28:06.444Z,4.20
2023-03-12T15:30:35.498Z,4.57
2023-03-12T15:33:19.075Z,5.05
2023-03-12T15:36:19.619Z,4.20
2023-03-12T15:38:50.880Z,7.25
2023-03-12T15:41:25.694Z,7.50
2023-03-12T15:43:56.562Z,5.95
2023-03-12T15:46:25.197Z,4.85
2023-03-12T15:48:57.802Z,4.28
2023-03-12T15:51:34.811Z,9.10
2023-03-12T15:54:14.563Z,7.68
2023-03-12T15:56:41.915Z,3.85
2023-03-12T15:59:27.938Z,4.30
2023-03-12T16:01:56.904Z,4.18
2023-03-12T16:04:24.699Z,3.90
2023-03-12T16:06:53.483Z,4.40
2023-03-12T16:09:29.104Z,3.90
2023-03-12T16:11:57.295Z,4.80
2023-03-12T16:14:29.336Z,5.60
2023-03-12T16:16:56.860Z,4.43
2023-03-12T16:19:27.118Z,4.13
2023-03-12T16:21:54.547Z,4.25
2023-03-12T16:24:21.854Z,3.88
2023-03-12T16:26:58.230Z,4.35
2023-03-12T16:29:37.630Z,4.75
2023-03-12T16:32:15.220Z,5.03
2023-03-12T16:34:43.105Z,4.43
2023-03-12T16:37:12.405Z,4.55
2023-03-12T16:39:40.244Z,4.93
2023-03-12T16:42:16.878Z,4.88
2023-03-12T16:44:46.315Z,4.78
2023-03-12T16:47:14.650Z,5.57
2023-03-12T16:49:44.085Z,4.93
2023-03-12T16:52:31.466Z,5.57
2023-03-12T16:54:58.895Z,5.28
2023-03-12T16:57:41.484Z,6.45
2023-03-12T17:00:14.043Z,5.90
2023-03-12T17:02:41.478Z,7.22
2023-03-12T17:05:09.185Z,6.50
2023-03-12T17:07:36.591Z,7.15
2023-03-12T17:10:04.748Z,7.05
2023-03-12T17:12:38.548Z,6.25
2023-03-12T17:15:13.256Z,6.47
2023-03-12T17:17:40.710Z,6.13
2023-03-12T17:20:10.702Z,7.22
2023-03-12T17:22:37.983Z,8.27
2023-03-12T17:25:06.211Z,7.95
2023-03-12T17:27:33.747Z,7.75
2023-03-12T17:30:01.135Z,6.82
2023-03-12T17:32:30.544Z,6.70
2023-03-12T17:35:00.129Z,9.65
2023-03-12T17:37:27.438Z,9.98
2023-03-12T17:39:54.964Z,10.27
2023-03-12T17:42:22.498Z,9.45
2023-03-12T17:44:49.794Z,10.23
2023-03-12T17:47:17.205Z,10.13
2023-03-12T17:49:44.608Z,9.45
2023-03-12T17:52:13.316Z,10.60
2023-03-12T17:54:40.855Z,14.82
2023-03-12T17:57:08.322Z,13.05
2023-03-12T17:59:35.809Z,15.65
2023-03-12T18:02:03.610Z,17.42
2023-03-12T18:04:32.848Z,19.17
2023-03-12T18:07:00.789Z,18.20
2023-03-12T18:09:28.460Z,16.65
2023-03-12T18:11:55.797Z,18.80
2023-03-12T18:14:23.251Z,23.83
2023-03-12T18:16:50.518Z,25.77
2023-03-12T18:19:18.130Z,32.42
2023-03-12T18:21:45.565Z,29.98
2023-03-12T18:24:14.305Z,24.70
2023-03-12T18:26:42.492Z,17.73
2023-03-12T18:29:09.706Z,21.27
2023-03-12T18:31:37.120Z,22.48
2023-03-12T18:34:04.515Z,26.67
2023-03-12T18:36:31.921Z,27.42
2023-03-12T18:38:59.698Z,29.58
2023-03-12T18:41:31.454Z,31.63
2023-03-12T18:44:02.674Z,31.73
2023-03-12T18:46:30.148Z,29.42
2023-03-12T18:48:57.481Z,24.27
2023-03-12T18:51:24.806Z,27.50
2023-03-12T18:53:52.093Z,37.80
2023-03-12T18:56:19.419Z,30.58
2023-03-12T18:58:47.012Z,27.15
2023-03-12T19:01:14.263Z,21.52
2023-03-12T19:03:41.490Z,23.13
2023-03-12T19:06:12.350Z,19.10
2023-03-12T19:08:40.445Z,23.75
2023-03-12T19:11:10.105Z,23.20
2023-03-12T19:13:37.852Z,23.80
2023-03-12T19:16:11.411Z,24.70
2023-03-12T19:18:39.589Z,28.13
2023-03-12T19:21:10.007Z,34.92
2023-03-12T19:23:37.402Z,38.85
2023-03-12T19:26:05.434Z,53.83
2023-03-12T19:28:32.634Z,60.95
2023-03-12T19:31:05.342Z,58.70
2023-03-12T19:33:33.475Z,53.35
2023-03-12T19:36:00.968Z,47.38
2023-03-12T19:38:28.444Z,44.00
2023-03-12T19:40:57.580Z,46.67
2023-03-12T19:43:28.727Z,50.25
2023-03-12T19:45:56.444Z,47.75
2023-03-12T19:48:25.422Z,46.08
2023-03-12T19:50:53.950Z,49.42
2023-03-12T19:53:21.560Z,43.90
2023-03-12T19:55:49.858Z,42.42
2023-03-12T19:58:17.712Z,34.60
2023-03-12T20:00:45.326Z,35.00
2023-03-12T20:03:12.724Z,37.30
2023-03-12T20:05:44.186Z,32.22
2023-03-12T20:08:12.084Z,30.33
2023-03-12T20:10:39.709Z,34.78
2023-03-12T20:13:08.993Z,41.08
2023-03-12T20:15:39.613Z,47.20
2023-03-12T20:18:07.039Z,46.78
2023-03-12T20:20:34.442Z,46.45
2023-03-12T20:23:01.694Z,44.50
2023-03-12T20:25:29.070Z,45.80
2023-03-12T20:27:58.068Z,50.90
2023-03-12T20:30:25.265Z,49.83
2023-03-12T20:32:52.711Z,42.92
2023-03-12T20:35:20.140Z,39.47
2023-03-12T20:37:47.547Z,34.42
2023-03-12T20:40:14.919Z,34.60
2023-03-12T20:42:43.386Z,34.47
2023-03-12T20:45:11.351Z,33.13
2023-03-12T20:47:40.397Z,38.33
2023-03-12T20:50:08.921Z,58.58
2023-03-12T20:52:36.328Z,70.25
2023-03-12T20:55:03.946Z,42.42
2023-03-12T20:57:31.515Z,32.13
2023-03-12T21:00:00.172Z,28.70
2023-03-12T21:02:27.606Z,28.45
2023-03-12T21:04:54.993Z,32.05
2023-03-12T21:07:25.072Z,37.72
2023-03-12T21:09:52.596Z,33.63
2023-03-12T21:12:19.973Z,31.55
2023-03-12T21:14:47.916Z,35.45
2023-03-12T21:17:15.472Z,37.38
2023-03-12T21:19:43.455Z,35.08
2023-03-12T21:22:11.145Z,34.35
2023-03-12T21:24:38.649Z,34.38
2023-03-12T21:27:06.112Z,36.65
2023-03-12T21:29:33.640Z,36.15
2023-03-12T21:32:00.916Z,36.70
2023-03-12T21:34:30.416Z,36.90
2023-03-12T21:36:57.782Z,34.70
2023-03-12T21:39:27.329Z,33.58
2023-03-12T21:41:57.777Z,34.92
2023-03-12T21:44:25.763Z,37.50
2023-03-12T21:46:53.650Z,36.92
2023-03-12T21:49:21.518Z,35.97
2023-03-12T21:51:48.850Z,36.15
2023-03-12T21:54:16.197Z,39.20
2023-03-12T21:56:43.592Z,44.17
2023-03-12T21:59:10.947Z,45.55
2023-03-12T22:01:38.417Z,46.80
2023-03-12T22:04:05.985Z,50.20
2023-03-12T22:06:33.457Z,45.85
2023-03-12T22:09:01.017Z,42.70
2023-03-12T22:11:28.620Z,36.38
2023-03-12T22:13:56.301Z,37.58
2023-03-12T22:16:23.797Z,34.88
2023-03-12T22:18:51.232Z,36.13
2023-03-12T22:21:20.794Z,36.78
2023-03-12T22:23:51.733Z,36.13
2023-03-12T22:26:21.539Z,35.88
2023-03-12T22:28:55.867Z,38.10
2023-03-12T22:31:25.949Z,39.92
2023-03-12T22:33:53.585Z,40.10
2023-03-12T22:36:21.465Z,41.70
2023-03-12T22:38:49.492Z,40.33
2023-03-12T22:41:16.784Z,41.45
2023-03-12T22:43:45.003Z,40.72
2023-03-12T22:46:13.272Z,42.30
2023-03-12T22:48:44.255Z,44.50
2023-03-12T22:51:12.774Z,38.55
2023-03-12T22:53:40.272Z,34.17
2023-03-12T22:56:10.158Z,32.20
2023-03-12T22:58:37.964Z,29.25
2023-03-12T23:01:08.765Z,27.20
2023-03-12T23:03:37.822Z,28.95
2023-03-12T23:06:19.249Z,29.30
2023-03-12T23:08:47.821Z,28.63
2023-03-12T23:11:16.797Z,25.77
2023-03-12T23:13:45.434Z,26.55
2023-03-12T23:16:15.638Z,26.08
2023-03-12T23:18:43.100Z,26.83
2023-03-12T23:21:13.777Z,28.67
2023-03-12T23:23:43.556Z,30.85
2023-03-12T23:26:26.576Z,31.30
2023-03-12T23:28:58.846Z,29.98
2023-03-12T23:31:27.917Z,32.25
2023-03-12T23:33:56.285Z,33.25
2023-03-12T23:36:24.626Z,31.67
2023-03-12T23:38:51.844Z,33.70
2023-03-12T23:41:24.312Z,32.80
2023-03-12T23:43:52.565Z,29.10
2023-03-12T23:46:20.216Z,23.40
2023-03-12T23:48:48.042Z,26.17
2023-03-12T23:51:22.691Z,25.45
2023-03-12T23:56:21.157Z,25.45
2023-03-12T23:58:49.804Z,31.73
